Time;durP1;ratioP1;P1;durP2;ratioP2;P2;SDS_P1;SDS_P2;PMS_P1;PMS_P2;Temp;Humidity;BMP_temperature;BMP_pressure;BME280_temperature;BME280_humidity;BME280_pressure;Samples;Min_cycle;Max_cycle;Signal;HPM_P1;HPM_P2
2021/09/17 00:01:11;;;;;;;;;;;;;;;;;;5015564;28;19948;-84
2021/09/17 00:03:36;;;;;;;;;;;;;;;;;;4979157;28;19963;-84
2021/09/17 00:06:01;;;;;;;;;;;;;;;;;;4979022;28;19917;-84
2021/09/17 00:08:28;;;;;;;;;;;;;;;;;;4978733;28;19928;-84
2021/09/17 00:10:53;;;;;;;;;;;;;;;;;;5028198;28;20566;-84
2021/09/17 00:13:18;;;;;;;;;;;;;;;;;;5023828;28;20025;-84
2021/09/17 00:15:44;;;;;;;;;;;;;;;;;;4991834;28;20019;-84
2021/09/17 00:18:09;;;;;;;;;;;;;;;;;;5027057;28;19933;-84
2021/09/17 00:20:35;;;;;;;;;;;;;;;;;;5011184;28;20372;-84
2021/09/17 00:23:01;;;;;;;;;;;;;;;;;;5027989;28;19913;-84
2021/09/17 00:25:27;;;;;;;;;;;;;;;;;;5027833;28;19951;-84
2021/09/17 00:27:52;;;;;;;;;;;;;;;;;;5026346;28;19925;-84
2021/09/17 00:30:18;;;;;;;;;;;;;;;;;;4981890;28;19964;-84
2021/09/17 00:32:43;;;;;;;;;;;;;;;;;;5030870;28;19912;-83
2021/09/17 00:35:09;;;;;;;;;;;;;;;;;;5030870;28;20349;-84
2021/09/17 00:37:34;;;;;;;;;;;;;;;;;;5023401;28;19925;-84
2021/09/17 00:40:01;;;;;;;;;;;;;;;;;;4978300;28;19918;-84
2021/09/17 00:42:28;;;;;;;;;;;;;;;;;;4994774;28;19918;-84
2021/09/17 00:44:53;;;;;;;;;;;;;;;;;;5030010;28;19957;-84
2021/09/17 00:47:18;;;;;;;;;;;;;;;;;;5010840;28;20403;-84
2021/09/17 00:49:43;;;;;;;;;;;;;;;;;;4994673;28;19921;-83
2021/09/17 00:52:09;;;;;;;;;;;;;;;;;;5011132;28;19913;-84
2021/09/17 00:54:34;;;;;;;;;;;;;;;;;;5010880;28;20008;-84
2021/09/17 00:57:03;;;;;;;;;;;;;;;;;;5026737;28;19953;-84
2021/09/17 00:59:28;;;;;;;;;;;;;;;;;;4978144;28;19917;-84
2021/09/17 01:01:54;;;;;;;;;;;;;;;;;;4988183;28;19935;-84
2021/09/17 01:04:19;;;;;;;;;;;;;;;;;;5031068;28;19920;-84
2021/09/17 01:06:45;;;;;;;;;;;;;;;;;;5030809;28;19913;-84
2021/09/17 01:09:11;;;;;;;;;;;;;;;;;;5009859;28;19921;-84
2021/09/17 01:11:36;;;;;;;;;;;;;;;;;;5007499;28;19929;-83
2021/09/17 01:14:02;;;;;;;;;;;;;;;;;;5007789;28;19921;-84
2021/09/17 01:16:28;;;;;;;;;;;;;;;;;;4991188;28;20289;-84
2021/09/17 01:18:53;;;;;;;;;;;;;;;;;;4991049;28;19920;-84
2021/09/17 01:21:20;;;;;;;;;;;;;;;;;;5007710;28;20335;-84
2021/09/17 01:23:45;;;;;;;;;;;;;;;;;;4999277;28;19960;-84
2021/09/17 01:26:12;;;;;;;;;;;;;;;;;;5011455;28;19956;-83
2021/09/17 01:28:37;;;;;;;;;;;;;;;;;;5011825;28;19921;-83
2021/09/17 01:31:02;;;;;;;;;;;;;;;;;;5015781;28;19924;-83
2021/09/17 01:33:29;;;;;;;;;;;;;;;;;;5034364;28;19920;-83
2021/09/17 01:35:57;;;;;;;;;;;;;;;;;;5029221;28;20012;-83
2021/09/17 01:38:24;;;;;;;;;;;;;;;;;;5029679;28;19921;-83
2021/09/17 01:40:49;;;;;;;;;;;;;;;;;;5030736;28;19917;-83
2021/09/17 01:43:14;;;;;;;;;;;;;;;;;;5019247;28;19979;-83
2021/09/17 01:45:40;;;;;;;;;;;;;;;;;;5030410;28;19920;-83
2021/09/17 01:48:06;;;;;;;;;;;;;;;;;;5028509;28;19925;-84
2021/09/17 01:50:31;;;;;;;;;;;;;;;;;;5030845;28;19914;-84
2021/09/17 01:52:57;;;;;;;;;;;;;;;;;;5029853;28;19961;-83
2021/09/17 01:55:23;;;;;;;;;;;;;;;;;;5016882;28;19945;-83
2021/09/17 01:57:49;;;;;;;;;;;;;;;;;;5016260;28;19922;-84
2021/09/17 02:00:15;;;;;;;;;;;;;;;;;;5029529;28;19917;-83
2021/09/17 02:02:40;;;;;;;;;;;;;;;;;;5030068;28;20346;-84
2021/09/17 02:05:06;;;;;;;;;;;;;;;;;;5030185;28;19914;-84
2021/09/17 02:07:31;;;;;;;;;;;;;;;;;;5008805;28;19918;-85
2021/09/17 02:09:58;;;;;;;;;;;;;;;;;;5010770;28;19922;-84
2021/09/17 02:12:23;;;;;;;;;;;;;;;;;;5010354;28;19925;-84
2021/09/17 02:14:48;;;;;;;;;;;;;;;;;;5027166;28;19929;-84
2021/09/17 02:17:14;;;;;;;;;;;;;;;;;;5011176;28;19913;-84
2021/09/17 02:19:39;;;;;;;;;;;;;;;;;;5030215;28;20347;-84
2021/09/17 02:22:04;;;;;;;;;;;;;;;;;;5029663;28;19917;-84
2021/09/17 02:24:30;;;;;;;;;;;;;;;;;;5030047;28;19980;-84
2021/09/17 02:26:55;;;;;;;;;;;;;;;;;;5029980;28;20001;-84
2021/09/17 02:29:20;;;;;;;;;;;;;;;;;;5013182;28;19955;-84
2021/09/17 02:31:46;;;;;;;;;;;;;;;;;;5019876;28;19917;-84
2021/09/17 02:34:11;;;;;;;;;;;;;;;;;;5046987;28;19913;-84
2021/09/17 02:36:38;;;;;;;;;;;;;;;;;;5016051;28;19943;-83
2021/09/17 02:39:03;;;;;;;;;;;;;;;;;;4980651;28;19917;-84
2021/09/17 02:41:28;;;;;;;;;;;;;;;;;;4996245;28;19921;-84
2021/09/17 02:43:54;;;;;;;;;;;;;;;;;;5010252;28;19968;-83
2021/09/17 02:46:19;;;;;;;;;;;;;;;;;;5009936;28;19925;-83
2021/09/17 02:48:44;;;;;;;;;;;;;;;;;;5009625;28;19999;-83
2021/09/17 02:51:11;;;;;;;;;;;;;;;;;;5022650;28;19917;-84
2021/09/17 02:53:37;;;;;;;;;;;;;;;;;;5029549;28;19940;-84
2021/09/17 02:56:02;;;;;;;;;;;;;;;;;;5010369;28;19918;-84
2021/09/17 02:58:28;;;;;;;;;;;;;;;;;;5022740;28;19917;-84
2021/09/17 03:00:53;;;;;;;;;;;;;;;;;;5023931;28;19918;-83
2021/09/17 03:03:18;;;;;;;;;;;;;;;;;;5036171;28;20004;-84
2021/09/17 03:05:44;;;;;;;;;;;;;;;;;;5032150;28;19916;-84
2021/09/17 03:08:09;;;;;;;;;;;;;;;;;;5032310;28;19920;-84
2021/09/17 03:10:34;;;;;;;;;;;;;;;;;;5032360;28;20012;-84
2021/09/17 03:13:00;;;;;;;;;;;;;;;;;;5020119;28;20016;-84
2021/09/17 03:15:25;;;;;;;;;;;;;;;;;;4979811;28;19924;-83
2021/09/17 03:17:50;;;;;;;;;;;;;;;;;;4996359;28;19944;-84
2021/09/17 03:20:16;;;;;;;;;;;;;;;;;;4979385;28;19917;-83
2021/09/17 03:22:41;;;;;;;;;;;;;;;;;;4979674;28;19913;-83
2021/09/17 03:25:07;;;;;;;;;;;;;;;;;;4979524;28;20474;-84
2021/09/17 03:27:32;;;;;;;;;;;;;;;;;;4992457;28;19926;-82
2021/09/17 03:29:57;;;;;;;;;;;;;;;;;;5028821;28;20288;-83
2021/09/17 03:32:24;;;;;;;;;;;;;;;;;;4980606;28;20261;-84
2021/09/17 03:34:49;;;;;;;;;;;;;;;;;;5031531;28;20387;-84
2021/09/17 03:37:16;;;;;;;;;;;;;;;;;;5022291;28;19995;-83
2021/09/17 03:39:42;;;;;;;;;;;;;;;;;;5010861;28;19964;-84
2021/09/17 03:42:08;;;;;;;;;;;;;;;;;;4979325;28;19999;-83
2021/09/17 03:44:34;;;;;;;;;;;;;;;;;;5011697;28;19933;-83
2021/09/17 03:46:59;;;;;;;;;;;;;;;;;;4978339;28;20023;-83
2021/09/17 03:49:24;;;;;;;;;;;;;;;;;;4979176;28;19945;-83
2021/09/17 03:51:50;;;;;;;;;;;;;;;;;;4995516;28;19914;-83
2021/09/17 03:54:15;;;;;;;;;;;;;;;;;;4979108;28;19967;-83
2021/09/17 03:56:40;;;;;;;;;;;;;;;;;;5007856;28;20363;-83
2021/09/17 03:59:06;;;;;;;;;;;;;;;;;;4992559;28;19914;-84
2021/09/17 04:01:31;;;;;;;;;;;;;;;;;;4981580;28;19917;-83
2021/09/17 04:03:56;;;;;;;;;;;;;;;;;;5027904;28;20708;-83
2021/09/17 04:06:22;;;;;;;;;;;;;;;;;;5022274;28;19972;-83
2021/09/17 04:08:48;;;;;;;;;;;;;;;;;;4991838;28;20024;-83
2021/09/17 04:11:13;;;;;;;;;;;;;;;;;;5008171;28;20004;-83
2021/09/17 04:13:39;;;;;;;;;;;;;;;;;;5008122;28;20016;-83
2021/09/17 04:16:04;;;;;;;;;;;;;;;;;;4994905;28;19918;-83
2021/09/17 04:18:29;;;;;;;;;;;;;;;;;;5024538;28;19913;-83
2021/09/17 04:20:54;;;;;;;;;;;;;;;;;;5024159;28;19918;-84
2021/09/17 04:23:20;;;;;;;;;;;;;;;;;;5020063;28;19920;-84
2021/09/17 04:25:45;;;;;;;;;;;;;;;;;;5031032;28;19917;-83
2021/09/17 04:28:10;;;;;;;;;;;;;;;;;;5031057;28;19913;-83
2021/09/17 04:30:36;;;;;;;;;;;;;;;;;;5023516;28;19925;-84
2021/09/17 04:33:01;;;;;;;;;;;;;;;;;;4978292;28;20315;-83
2021/09/17 04:35:27;;;;;;;;;;;;;;;;;;4994641;28;19917;-83
2021/09/17 04:37:56;;;;;;;;;;;;;;;;;;4978408;28;19921;-84
2021/09/17 04:40:22;;;;;;;;;;;;;;;;;;4979153;28;19960;-83
2021/09/17 04:42:47;;;;;;;;;;;;;;;;;;4994696;28;20335;-83
2021/09/17 04:45:13;;;;;;;;;;;;;;;;;;5026926;28;19925;-83
2021/09/17 04:47:39;;;;;;;;;;;;;;;;;;4978296;28;20004;-83
2021/09/17 04:50:04;;;;;;;;;;;;;;;;;;4972971;28;20389;-83
2021/09/17 04:52:30;;;;;;;;;;;;;;;;;;5041983;28;19917;-83
2021/09/17 04:54:59;;;;;;;;;;;;;;;;;;5016653;28;19965;-83
2021/09/17 04:57:24;;;;;;;;;;;;;;;;;;5007364;28;19914;-83
2021/09/17 04:59:50;;;;;;;;;;;;;;;;;;5021142;28;20383;-84
2021/09/17 05:02:15;;;;;;;;;;;;;;;;;;5031772;28;19914;-83
2021/09/17 05:04:41;;;;;;;;;;;;;;;;;;5031282;28;19996;-83
2021/09/17 05:07:08;;;;;;;;;;;;;;;;;;5021349;28;19918;-89
2021/09/17 05:09:33;;;;;;;;;;;;;;;;;;5045869;28;19916;-82
2021/09/17 05:11:58;;;;;;;;;;;;;;;;;;5017831;28;20438;-82
2021/09/17 05:14:24;;;;;;;;;;;;;;;;;;5030910;28;19975;-80
2021/09/17 05:16:49;;;;;;;;;;;;;;;;;;5047230;28;19982;-81
2021/09/17 05:19:14;;;;;;;;;;;;;;;;;;5030736;28;19914;-79
2021/09/17 05:21:40;;;;;;;;;;;;;;;;;;5019481;28;19918;-80
2021/09/17 05:24:05;;;;;;;;;;;;;;;;;;4983357;28;19928;-82
2021/09/17 05:26:30;;;;;;;;;;;;;;;;;;5014940;28;19917;-81
2021/09/17 05:28:56;;;;;;;;;;;;;;;;;;5022361;28;19964;-81
2021/09/17 05:31:21;;;;;;;;;;;;;;;;;;5026169;28;19917;-81
2021/09/17 05:33:46;;;;;;;;;;;;;;;;;;5011878;28;19917;-81
2021/09/17 05:36:12;;;;;;;;;;;;;;;;;;4992731;28;19917;-81
2021/09/17 05:38:37;;;;;;;;;;;;;;;;;;5010678;28;20028;-80
2021/09/17 05:41:03;;;;;;;;;;;;;;;;;;5025657;28;19922;-81
2021/09/17 05:43:28;;;;;;;;;;;;;;;;;;5030790;28;19928;-80
2021/09/17 05:45:53;;;;;;;;;;;;;;;;;;5028797;28;19913;-81
2021/09/17 05:48:18;;;;;;;;;;;;;;;;;;5030600;28;20295;-81
2021/09/17 05:50:44;;;;;;;;;;;;;;;;;;5030228;28;19909;-80
2021/09/17 05:53:09;;;;;;;;;;;;;;;;;;5029968;28;19928;-80
2021/09/17 05:55:34;;;;;;;;;;;;;;;;;;5015016;28;19909;-80
2021/09/17 05:58:00;;;;;;;;;;;;;;;;;;5010615;28;19964;-80
2021/09/17 06:00:25;;;;;;;;;;;;;;;;;;5032465;28;19920;-80
2021/09/17 06:02:51;;;;;;;;;;;;;;;;;;5023984;28;20358;-81
2021/09/17 06:05:16;;;;;;;;;;;;;;;;;;5036209;28;19913;-80
2021/09/17 06:07:42;;;;;;;;;;;;;;;;;;5033131;28;20008;-80
2021/09/17 06:10:08;;;;;;;;;;;;;;;;;;5013650;28;19967;-81
2021/09/17 06:12:33;;;;;;;;;;;;;;;;;;4997209;28;19913;-80
2021/09/17 06:14:58;;;;;;;;;;;;;;;;;;5013386;28;19925;-81
2021/09/17 06:17:24;;;;;;;;;;;;;;;;;;4996952;28;19913;-81
2021/09/17 06:19:49;;;;;;;;;;;;;;;;;;5029806;28;19976;-81
2021/09/17 06:22:14;;;;;;;;;;;;;;;;;;5023697;28;19917;-80
2021/09/17 06:24:40;;;;;;;;;;;;;;;;;;5014045;28;19917;-80
2021/09/17 06:27:05;;;;;;;;;;;;;;;;;;5021185;28;19922;-81
2021/09/17 06:29:31;;;;;;;;;;;;;;;;;;5026819;28;19931;-81
2021/09/17 06:31:56;;;;;;;;;;;;;;;;;;5031053;28;19913;-81
2021/09/17 06:34:21;;;;;;;;;;;;;;;;;;4996709;28;19925;-82
2021/09/17 06:36:46;;;;;;;;;;;;;;;;;;4980289;28;19913;-82
2021/09/17 06:39:12;;;;;;;;;;;;;;;;;;5012795;28;19921;-82
2021/09/17 06:41:37;;;;;;;;;;;;;;;;;;4980407;28;19932;-82
2021/09/17 06:44:04;;;;;;;;;;;;;;;;;;5029437;28;19925;-82
2021/09/17 06:46:29;;;;;;;;;;;;;;;;;;5025076;28;19917;-83
2021/09/17 06:48:55;;;;;;;;;;;;;;;;;;5043958;28;20000;-83
2021/09/17 06:51:21;;;;;;;;;;;;;;;;;;5032868;28;19913;-82
2021/09/17 06:53:46;;;;;;;;;;;;;;;;;;5022372;28;19917;-82
2021/09/17 06:56:12;;;;;;;;;;;;;;;;;;4980505;28;19913;-83
2021/09/17 06:58:37;;;;;;;;;;;;;;;;;;4996296;28;20291;-82
2021/09/17 07:01:03;;;;;;;;;;;;;;;;;;5012091;28;19921;-83
2021/09/17 07:03:28;;;;;;;;;;;;;;;;;;5013000;28;19944;-83
2021/09/17 07:05:54;;;;;;;;;;;;;;;;;;4979864;28;20334;-83
2021/09/17 07:08:19;;;;;;;;;;;;;;;;;;4980142;28;19921;-83
2021/09/17 07:10:45;;;;;;;;;;;;;;;;;;4996437;28;19913;-83
2021/09/17 07:13:11;;;;;;;;;;;;;;;;;;4995008;28;19925;-82
2021/09/17 07:15:36;;;;;;;;;;;;;;;;;;5009811;28;19917;-82
2021/09/17 07:18:02;;;;;;;;;;;;;;;;;;5041147;28;20344;-82
2021/09/17 07:20:28;;;;;;;;;;;;;;;;;;5045082;28;19922;-82
2021/09/17 07:22:54;;;;;;;;;;;;;;;;;;5011387;28;19917;-83
2021/09/17 07:25:19;;;;;;;;;;;;;;;;;;5028822;28;19917;-83
2021/09/17 07:27:45;;;;;;;;;;;;;;;;;;5028683;28;20417;-82
2021/09/17 07:30:10;;;;;;;;;;;;;;;;;;5015564;28;19961;-83
2021/09/17 07:32:36;;;;;;;;;;;;;;;;;;5015424;28;19913;-82
2021/09/17 07:35:01;;;;;;;;;;;;;;;;;;5021195;28;20276;-82
2021/09/17 07:37:26;;;;;;;;;;;;;;;;;;4999511;28;19914;-83
2021/09/17 07:39:52;;;;;;;;;;;;;;;;;;5024962;28;19924;-82
2021/09/17 07:42:17;;;;;;;;;;;;;;;;;;5031049;28;19921;-82
2021/09/17 07:44:42;;;;;;;;;;;;;;;;;;5026925;28;19937;-83
2021/09/17 07:47:08;;;;;;;;;;;;;;;;;;5028540;28;19917;-82
2021/09/17 07:49:33;;;;;;;;;;;;;;;;;;5028367;28;19936;-83
2021/09/17 07:51:58;;;;;;;;;;;;;;;;;;5027672;28;19921;-82
2021/09/17 07:54:24;;;;;;;;;;;;;;;;;;5019101;28;19914;-84
2021/09/17 07:56:49;;;;;;;;;;;;;;;;;;5025713;28;20008;-80
2021/09/17 07:59:14;;;;;;;;;;;;;;;;;;5004967;28;19936;-80
2021/09/17 08:01:40;;;;;;;;;;;;;;;;;;5013108;28;20299;-81
2021/09/17 08:04:05;;;;;;;;;;;;;;;;;;5005524;28;19972;-80
2021/09/17 08:06:30;;;;;;;;;;;;;;;;;;5023879;28;19921;-80
2021/09/17 08:08:55;;;;;;;;;;;;;;;;;;5035689;28;19913;-80
2021/09/17 08:11:21;;;;;;;;;;;;;;;;;;5038958;28;20299;-81
2021/09/17 08:13:46;;;;;;;;;;;;;;;;;;5034710;28;19952;-80
2021/09/17 08:16:11;;;;;;;;;;;;;;;;;;4994244;28;20303;-80
2021/09/17 08:18:37;;;;;;;;;;;;;;;;;;5010384;28;20445;-80
2021/09/17 08:21:02;;;;;;;;;;;;;;;;;;4992440;28;19945;-80
2021/09/17 08:23:28;;;;;;;;;;;;;;;;;;5020281;28;19939;-80
2021/09/17 08:25:56;;;;;;;;;;;;;;;;;;5021715;28;19925;-81
2021/09/17 08:28:22;;;;;;;;;;;;;;;;;;5041119;28;20304;-81
2021/09/17 08:30:47;;;;;;;;;;;;;;;;;;5011290;28;19913;-81
2021/09/17 08:33:12;;;;;;;;;;;;;;;;;;5027562;28;19921;-81
2021/09/17 08:35:38;;;;;;;;;;;;;;;;;;5027473;28;19917;-80
2021/09/17 08:38:03;;;;;;;;;;;;;;;;;;5011046;28;19914;-80
2021/09/17 08:40:28;;;;;;;;;;;;;;;;;;5027042;28;19944;-80
2021/09/17 08:42:55;;;;;;;;;;;;;;;;;;5021604;28;19917;-80
2021/09/17 08:45:20;;;;;;;;;;;;;;;;;;4998308;28;19921;-80
2021/09/17 08:47:47;;;;;;;;;;;;;;;;;;5030988;28;19920;-80
2021/09/17 08:50:12;;;;;;;;;;;;;;;;;;5031070;28;19959;-81
2021/09/17 08:52:38;;;;;;;;;;;;;;;;;;5006001;28;20008;-80
2021/09/17 08:55:03;;;;;;;;;;;;;;;;;;5010811;28;19921;-81
2021/09/17 08:57:29;;;;;;;;;;;;;;;;;;4995630;28;19944;-80
2021/09/17 08:59:54;;;;;;;;;;;;;;;;;;5009982;28;19917;-81
2021/09/17 09:02:26;;;;;;;;;;;;;;;;;;4994271;28;20327;-80
2021/09/17 09:04:55;;;;;;;;;;;;;;;;;;4994461;28;19913;-80
2021/09/17 09:07:25;;;;;;;;;;;;;;;;;;5013686;28;20011;-80
2021/09/17 09:09:50;;;;;;;;;;;;;;;;;;5028495;28;19917;-80
2021/09/17 09:12:17;;;;;;;;;;;;;;;;;;5022494;28;19992;-80
2021/09/17 09:14:42;;;;;;;;;;;;;;;;;;5003461;28;19920;-80
2021/09/17 09:17:08;;;;;;;;;;;;;;;;;;5030293;28;20379;-80
2021/09/17 09:19:35;;;;;;;;;;;;;;;;;;5013447;28;19925;-80
2021/09/17 09:22:03;;;;;;;;;;;;;;;;;;5010469;28;19917;-80
2021/09/17 09:24:29;;;;;;;;;;;;;;;;;;5011474;28;19924;-81
2021/09/17 09:27:13;;;;;;;;;;;;;;;;;;4996821;28;20384;-80
2021/09/17 09:29:38;;;;;;;;;;;;;;;;;;5003820;28;19929;-80
2021/09/17 09:32:04;;;;;;;;;;;;;;;;;;5043597;28;19921;-80
2021/09/17 09:34:49;;;;;;;;;;;;;;;;;;5026320;28;19921;-81
2021/09/17 09:37:16;;;;;;;;;;;;;;;;;;5015679;28;19917;-81
2021/09/17 09:40:08;;;;;;;;;;;;;;;;;;4993722;28;19917;-80
2021/09/17 09:42:37;;;;;;;;;;;;;;;;;;5019466;28;19952;-80
2021/09/17 09:45:06;;;;;;;;;;;;;;;;;;5021954;28;19972;-80
2021/09/17 09:47:32;;;;;;;;;;;;;;;;;;5030719;28;20359;-81
2021/09/17 09:50:08;;;;;;;;;;;;;;;;;;5019866;28;20409;-80
2021/09/17 09:52:33;;;;;;;;;;;;;;;;;;5029860;28;20429;-80
2021/09/17 09:54:58;;;;;;;;;;;;;;;;;;5025065;28;19921;-81
2021/09/17 09:57:25;;;;;;;;;;;;;;;;;;5045849;28;19913;-80
2021/09/17 09:59:51;;;;;;;;;;;;;;;;;;5027905;28;19918;-80
2021/09/17 10:02:17;;;;;;;;;;;;;;;;;;4994339;28;20028;-81
2021/09/17 10:04:42;;;;;;;;;;;;;;;;;;5001959;28;20413;-80
2021/09/17 10:07:08;;;;;;;;;;;;;;;;;;5013174;28;19941;-81
2021/09/17 10:09:35;;;;;;;;;;;;;;;;;;5002964;28;19960;-81
2021/09/17 10:12:01;;;;;;;;;;;;;;;;;;5033566;28;19924;-82
2021/09/17 10:14:27;;;;;;;;;;;;;;;;;;5033504;28;19917;-82
2021/09/17 10:16:52;;;;;;;;;;;;;;;;;;5033709;28;19920;-82
2021/09/17 10:19:18;;;;;;;;;;;;;;;;;;5022459;28;19921;-82
2021/09/17 10:21:46;;;;;;;;;;;;;;;;;;4979924;28;19967;-82
2021/09/17 10:24:38;;;;;;;;;;;;;;;;;;4995436;28;19918;-84
2021/09/17 10:27:04;;;;;;;;;;;;;;;;;;5010976;28;20414;-82
2021/09/17 10:29:56;;;;;;;;;;;;;;;;;;5013259;28;19917;-81
2021/09/17 10:32:32;;;;;;;;;;;;;;;;;;5002579;28;19968;-82
2021/09/17 10:35:10;;;;;;;;;;;;;;;;;;5026141;28;19913;-82
2021/09/17 10:37:48;;;;;;;;;;;;;;;;;;5017468;28;19913;-82
2021/09/17 10:40:14;;;;;;;;;;;;;;;;;;5024151;28;19984;-81
2021/09/17 10:42:45;;;;;;;;;;;;;;;;;;5030517;28;19928;-82
2021/09/17 10:45:10;;;;;;;;;;;;;;;;;;4995567;28;19921;-82
2021/09/17 10:47:38;;;;;;;;;;;;;;;;;;4996678;28;19918;-81
2021/09/17 10:50:04;;;;;;;;;;;;;;;;;;5041081;28;19972;-82
2021/09/17 10:52:39;;;;;;;;;;;;;;;;;;4979847;28;20386;-82
2021/09/17 10:55:05;;;;;;;;;;;;;;;;;;5012994;28;19914;-82
2021/09/17 10:57:30;;;;;;;;;;;;;;;;;;5028378;28;19970;-82
2021/09/17 10:59:55;;;;;;;;;;;;;;;;;;5045450;28;20446;-81
2021/09/17 11:02:29;;;;;;;;;;;;;;;;;;5028780;28;19924;-81
2021/09/17 11:04:54;;;;;;;;;;;;;;;;;;5011235;28;19918;-81
2021/09/17 11:07:25;;;;;;;;;;;;;;;;;;5033240;28;19917;-82
2021/09/17 11:09:51;;;;;;;;;;;;;;;;;;5026845;28;19922;-81
2021/09/17 11:12:21;;;;;;;;;;;;;;;;;;5009089;28;19924;-81
2021/09/17 11:15:09;;;;;;;;;;;;;;;;;;5010118;28;19936;-82
2021/09/17 11:17:48;;;;;;;;;;;;;;;;;;5011927;28;19921;-81
2021/09/17 11:20:18;;;;;;;;;;;;;;;;;;5043270;28;19921;-81
2021/09/17 11:22:56;;;;;;;;;;;;;;;;;;5024834;28;19921;-82
2021/09/17 11:25:25;;;;;;;;;;;;;;;;;;5012809;28;20004;-81
2021/09/17 11:27:51;;;;;;;;;;;;;;;;;;5011203;28;19917;-81
2021/09/17 11:30:17;;;;;;;;;;;;;;;;;;5039754;28;19971;-82
2021/09/17 11:32:42;;;;;;;;;;;;;;;;;;5033007;28;19924;-82
2021/09/17 11:35:07;;;;;;;;;;;;;;;;;;5011107;28;20369;-82
2021/09/17 11:37:33;;;;;;;;;;;;;;;;;;5019871;28;19921;-82
2021/09/17 11:40:07;;;;;;;;;;;;;;;;;;5014673;28;20406;-82
2021/09/17 11:42:33;;;;;;;;;;;;;;;;;;4994320;28;19929;-82
2021/09/17 11:44:58;;;;;;;;;;;;;;;;;;4995153;28;20363;-82
2021/09/17 11:47:28;;;;;;;;;;;;;;;;;;5011065;28;19961;-81
2021/09/17 11:50:05;;;;;;;;;;;;;;;;;;5024571;28;19925;-81
2021/09/17 11:52:37;;;;;;;;;;;;;;;;;;5026661;28;19936;-81
2021/09/17 11:55:06;;;;;;;;;;;;;;;;;;4995253;28;19917;-81
2021/09/17 11:57:32;;;;;;;;;;;;;;;;;;4993931;28;20631;-82
2021/09/17 11:59:58;;;;;;;;;;;;;;;;;;5012558;28;19936;-82
2021/09/17 12:02:26;;;;;;;;;;;;;;;;;;5010287;28;19959;-82
2021/09/17 12:04:58;;;;;;;;;;;;;;;;;;5009978;28;19964;-81
2021/09/17 12:07:24;;;;;;;;;;;;;;;;;;5012064;28;20470;-82
2021/09/17 12:09:49;;;;;;;;;;;;;;;;;;4994107;28;19956;-81
2021/09/17 12:12:15;;;;;;;;;;;;;;;;;;5033572;28;20015;-82
2021/09/17 12:14:56;;;;;;;;;;;;;;;;;;5010270;28;20007;-81
2021/09/17 12:17:21;;;;;;;;;;;;;;;;;;4996428;28;19928;-81
2021/09/17 12:19:56;;;;;;;;;;;;;;;;;;5013835;28;20410;-82
2021/09/17 12:22:28;;;;;;;;;;;;;;;;;;5025217;28;19925;-82
2021/09/17 12:25:20;;;;;;;;;;;;;;;;;;5019717;28;19921;-82
2021/09/17 12:27:46;;;;;;;;;;;;;;;;;;4992962;28;20296;-81
2021/09/17 12:30:16;;;;;;;;;;;;;;;;;;5007199;28;20004;-81
2021/09/17 12:32:41;;;;;;;;;;;;;;;;;;4989773;28;19957;-81
2021/09/17 12:35:14;;;;;;;;;;;;;;;;;;5015765;28;20071;-81
2021/09/17 12:37:52;;;;;;;;;;;;;;;;;;5020701;28;19967;-81
2021/09/17 12:40:18;;;;;;;;;;;;;;;;;;5030030;28;19918;-81
2021/09/17 12:42:43;;;;;;;;;;;;;;;;;;5016202;28;20398;-81
2021/09/17 12:45:10;;;;;;;;;;;;;;;;;;5020433;28;19925;-81
2021/09/17 12:47:35;;;;;;;;;;;;;;;;;;5027037;28;19940;-82
2021/09/17 12:50:04;;;;;;;;;;;;;;;;;;5043240;28;20371;-82
2021/09/17 12:52:29;;;;;;;;;;;;;;;;;;5021772;28;19917;-82
2021/09/17 12:54:54;;;;;;;;;;;;;;;;;;4978006;28;19918;-81
2021/09/17 12:57:21;;;;;;;;;;;;;;;;;;5011744;28;19913;-80
2021/09/17 13:00:06;;;;;;;;;;;;;;;;;;5009269;28;19917;-82
2021/09/17 13:02:31;;;;;;;;;;;;;;;;;;4993778;28;20299;-83
2021/09/17 13:05:00;;;;;;;;;;;;;;;;;;4993833;28;19918;-82
2021/09/17 13:07:25;;;;;;;;;;;;;;;;;;5034490;28;20008;-84
2021/09/17 13:09:51;;;;;;;;;;;;;;;;;;5021946;28;20044;-82
2021/09/17 13:12:16;;;;;;;;;;;;;;;;;;4977549;28;20295;-82
2021/09/17 13:14:43;;;;;;;;;;;;;;;;;;5026573;28;20015;-82
2021/09/17 13:17:08;;;;;;;;;;;;;;;;;;5027455;28;20372;-82
2021/09/17 13:19:33;;;;;;;;;;;;;;;;;;5043090;28;19925;-81
2021/09/17 13:21:59;;;;;;;;;;;;;;;;;;5012241;28;19917;-82
2021/09/17 13:24:24;;;;;;;;;;;;;;;;;;5013784;28;20328;-82
2021/09/17 13:26:49;;;;;;;;;;;;;;;;;;4998413;28;19957;-82
2021/09/17 13:29:15;;;;;;;;;;;;;;;;;;5013846;28;19971;-82
2021/09/17 13:31:40;;;;;;;;;;;;;;;;;;5015191;28;20390;-81
2021/09/17 13:34:05;;;;;;;;;;;;;;;;;;5013843;28;19932;-81
2021/09/17 13:36:30;;;;;;;;;;;;;;;;;;5010338;28;19924;-82
2021/09/17 13:38:56;;;;;;;;;;;;;;;;;;5012861;28;20400;-82
2021/09/17 13:41:21;;;;;;;;;;;;;;;;;;5030666;28;19917;-82
2021/09/17 13:43:46;;;;;;;;;;;;;;;;;;5037455;28;19921;-82
2021/09/17 13:46:11;;;;;;;;;;;;;;;;;;5030339;28;20285;-84
2021/09/17 13:48:37;;;;;;;;;;;;;;;;;;5047206;28;19914;-83
2021/09/17 13:51:02;;;;;;;;;;;;;;;;;;5030396;28;19952;-83
2021/09/17 13:53:27;;;;;;;;;;;;;;;;;;5030594;28;19956;-82
2021/09/17 13:55:53;;;;;;;;;;;;;;;;;;5012890;28;19918;-83
2021/09/17 13:58:18;;;;;;;;;;;;;;;;;;5018706;28;19944;-83
2021/09/17 14:00:43;;;;;;;;;;;;;;;;;;5023035;28;20376;-82
2021/09/17 14:03:09;;;;;;;;;;;;;;;;;;5021117;28;20344;-83
2021/09/17 14:05:34;;;;;;;;;;;;;;;;;;5028145;28;19917;-82
2021/09/17 14:07:59;;;;;;;;;;;;;;;;;;5028222;28;19987;-83
2021/09/17 14:10:25;;;;;;;;;;;;;;;;;;5028491;28;20291;-83
2021/09/17 14:12:50;;;;;;;;;;;;;;;;;;5023432;28;20314;-83
2021/09/17 14:15:15;;;;;;;;;;;;;;;;;;5010570;28;20287;-83
2021/09/17 14:17:40;;;;;;;;;;;;;;;;;;5010317;28;19921;-83
2021/09/17 14:20:06;;;;;;;;;;;;;;;;;;5010383;28;20368;-87
2021/09/17 14:22:31;;;;;;;;;;;;;;;;;;5010691;28;19918;-85
2021/09/17 14:24:56;;;;;;;;;;;;;;;;;;5030003;28;19968;-85
2021/09/17 14:27:22;;;;;;;;;;;;;;;;;;5012583;28;19918;-86
2021/09/17 14:29:49;;;;;;;;;;;;;;;;;;4993083;28;20000;-85
2021/09/17 14:32:14;;;;;;;;;;;;;;;;;;5022498;28;20391;-84
2021/09/17 14:34:39;;;;;;;;;;;;;;;;;;4996883;28;19929;-84
2021/09/17 14:37:05;;;;;;;;;;;;;;;;;;4996541;28;20383;-85
2021/09/17 14:39:30;;;;;;;;;;;;;;;;;;4980532;28;19921;-84
2021/09/17 14:41:55;;;;;;;;;;;;;;;;;;5032190;28;19916;-84
2021/09/17 14:44:20;;;;;;;;;;;;;;;;;;5017167;28;20314;-85
2021/09/17 14:46:46;;;;;;;;;;;;;;;;;;5045833;28;19917;-84
2021/09/17 14:49:11;;;;;;;;;;;;;;;;;;5018641;28;19930;-85
2021/09/17 14:51:37;;;;;;;;;;;;;;;;;;5038927;28;19972;-85
2021/09/17 14:54:02;;;;;;;;;;;;;;;;;;5013438;28;19923;-85
2021/09/17 14:56:27;;;;;;;;;;;;;;;;;;5011963;28;20318;-85
2021/09/17 14:58:55;;;;;;;;;;;;;;;;;;5012628;28;19924;-85
2021/09/17 15:01:20;;;;;;;;;;;;;;;;;;4992327;28;19913;-85
2021/09/17 15:03:46;;;;;;;;;;;;;;;;;;5032383;28;19920;-85
2021/09/17 15:06:11;;;;;;;;;;;;;;;;;;5018244;28;19950;-85
2021/09/17 15:08:36;;;;;;;;;;;;;;;;;;5012039;28;19945;-85
2021/09/17 15:11:05;;;;;;;;;;;;;;;;;;4995628;28;19914;-85
2021/09/17 15:13:31;;;;;;;;;;;;;;;;;;4996133;28;19929;-84
2021/09/17 15:15:56;;;;;;;;;;;;;;;;;;4980076;28;19921;-85
2021/09/17 15:18:21;;;;;;;;;;;;;;;;;;4979671;28;20441;-85
2021/09/17 15:20:47;;;;;;;;;;;;;;;;;;5012182;28;19917;-85
2021/09/17 15:23:13;;;;;;;;;;;;;;;;;;5012111;28;19923;-85
2021/09/17 15:25:38;;;;;;;;;;;;;;;;;;5012251;28;19952;-85
2021/09/17 15:28:03;;;;;;;;;;;;;;;;;;5012097;28;19936;-84
2021/09/17 15:30:29;;;;;;;;;;;;;;;;;;4995644;28;19924;-85
2021/09/17 15:32:54;;;;;;;;;;;;;;;;;;4979268;28;19914;-84
2021/09/17 15:35:19;;;;;;;;;;;;;;;;;;5028273;28;19932;-85
2021/09/17 15:37:44;;;;;;;;;;;;;;;;;;5028487;28;19959;-85
2021/09/17 15:40:10;;;;;;;;;;;;;;;;;;5026443;28;20359;-85
2021/09/17 15:42:35;;;;;;;;;;;;;;;;;;5027769;28;19984;-85
2021/09/17 15:45:03;;;;;;;;;;;;;;;;;;4995330;28;20005;-85
2021/09/17 15:47:28;;;;;;;;;;;;;;;;;;5011902;28;19917;-84
2021/09/17 15:49:54;;;;;;;;;;;;;;;;;;4999915;28;20380;-84
2021/09/17 15:52:19;;;;;;;;;;;;;;;;;;5028258;28;19913;-84
2021/09/17 15:54:44;;;;;;;;;;;;;;;;;;5028118;28;19917;-85
2021/09/17 15:57:10;;;;;;;;;;;;;;;;;;5027961;28;19973;-84
2021/09/17 15:59:35;;;;;;;;;;;;;;;;;;5026894;28;19924;-84
2021/09/17 16:02:00;;;;;;;;;;;;;;;;;;5027543;28;19972;-84
2021/09/17 16:04:26;;;;;;;;;;;;;;;;;;5025407;28;20322;-84
2021/09/17 16:06:53;;;;;;;;;;;;;;;;;;5027951;28;19966;-84
2021/09/17 16:09:19;;;;;;;;;;;;;;;;;;5025867;28;19921;-84
2021/09/17 16:11:44;;;;;;;;;;;;;;;;;;5027958;28;20334;-84
2021/09/17 16:14:09;;;;;;;;;;;;;;;;;;5027785;28;20374;-84
2021/09/17 16:16:35;;;;;;;;;;;;;;;;;;5014162;28;19976;-83
2021/09/17 16:19:00;;;;;;;;;;;;;;;;;;5006907;28;20000;-83
2021/09/17 16:21:27;;;;;;;;;;;;;;;;;;5007371;28;19917;-83
2021/09/17 16:23:52;;;;;;;;;;;;;;;;;;5008133;28;20000;-84
2021/09/17 16:26:17;;;;;;;;;;;;;;;;;;5008270;28;20012;-85
2021/09/17 16:28:43;;;;;;;;;;;;;;;;;;5007971;28;19921;-83
2021/09/17 16:31:08;;;;;;;;;;;;;;;;;;5007852;28;19927;-83
2021/09/17 16:33:33;;;;;;;;;;;;;;;;;;5008153;28;19922;-83
2021/09/17 16:35:59;;;;;;;;;;;;;;;;;;5010798;28;19917;-83
2021/09/17 16:38:24;;;;;;;;;;;;;;;;;;5026459;28;20413;-82
2021/09/17 16:40:49;;;;;;;;;;;;;;;;;;5027492;28;19925;-83